Cypress, IL (62923)

8:32 AM CST on December 28, 2014 (GMT -0600)
Hidden River Farms | Change Station
CLOSE
Current Station
Personal Weather Station
Location: Buncombe, IL
Elevation: 466 ft
Nearby Weather Stations

Elev 466 ft 37.47 °N, 89.11 °W | Updated 8 seconds ago

Overcast
Overcast
33.1 °F
Feels Like 28 °F
N
4.9
Wind Variable Wind from NNE
Gusts 7.0 mph

Today
High -- | Low -- °F
--% Chance of Precip.
Yesterday
High -- | Low -- °F
Precip. -- in
7:09 AM 4:46 PM
Waxing Crescent, 48% visible
Pressure 30.22 in
Visibility 10.0 miles
Clouds Overcast 1600 ft
Windchill 28 °F
Dew Point 29 °F
Humidity 86%
Rainfall 0.12 in
Snow Depth Not available.
UV 0 out of 12
Pollen .80 out of 12
Air Quality Not available.
Flu Activity Not available.
METAR KM30 281415Z AUTO 33006KT 10SM OVC016 01/01 A3022 RMK AO2 T00130008

More Conditions Fewer Conditions

Pressure 30.22 in
Visibility 10.0 miles
Clouds Overcast 1600 ft
Windchill 28 °F
Dew Point 29 °F
Humidity 86%
Rainfall 0.12 in
Snow Depth Not available.
UV 0 out of 12
Pollen .80 out of 12
Air Quality Not available.
Flu Activity Not available.
METAR KM30 281415Z AUTO 33006KT 10SM OVC016 01/01 A3022 RMK AO2 T00130008

More Conditions Fewer Conditions

10-Day Weather Forecast

Almanac

Astronomy

Dec. 28, 2014 Rise Set
Actual Time
Civil Twilight
Nautical Twilight
Astronomical Twilight
Moon
Length of Visible Light
Length of Day
Tomorrow will be .
, % of the Moon is Illuminated

Today's Extremes

State Highs State Lows

Community

WunderPhotos

Upload Photos

1,781,273 photos uploaded!

WunderBlogs® & News

Nearby

Air Quality

  Air Quality AQ Index Pollutant
Not available.

Snow Depth

Station Depth Elevation

Earthquake Activity

City Distance Mag. Time & Date
Minimum magnitude displayed is 2.5.

Coastal Water Temperatures

Place Temperature

Nearby Weather Stations